Time;durP1;ratioP1;P1;durP2;ratioP2;P2;SDS_P1;SDS_P2;PMS_P1;PMS_P2;Temp;Humidity;BMP_temperature;BMP_pressure;BME280_temperature;BME280_humidity;BME280_pressure;Samples;Min_cycle;Max_cycle;Signal;HPM_P1;HPM_P2
2021/01/19 00:01:20;;;;;;;25.17;16.03;;;2.90;99.90;;;;;;5009321;28;20249;-71
2021/01/19 00:03:46;;;;;;;29.43;16.03;;;2.90;99.90;;;;;;5009356;28;20300;-71
2021/01/19 00:06:14;;;;;;;24.53;15.77;;;2.90;99.90;;;;;;5009290;28;20324;-71
2021/01/19 00:08:41;;;;;;;27.27;16.67;;;2.90;99.90;;;;;;5008721;28;20312;-71
2021/01/19 00:11:07;;;;;;;30.23;15.07;;;2.80;99.90;;;;;;5009254;28;20759;-71
2021/01/19 00:13:33;;;;;;;28.80;16.73;;;2.80;99.90;;;;;;5009404;28;20722;-71
2021/01/19 00:16:00;;;;;;;28.73;19.00;;;2.80;99.90;;;;;;5009099;28;20263;-71
2021/01/19 00:18:27;;;;;;;28.33;17.50;;;2.90;99.90;;;;;;5008822;28;20244;-71
2021/01/19 00:20:53;;;;;;;26.83;17.63;;;2.80;99.90;;;;;;5009273;28;20270;-71
2021/01/19 00:23:20;;;;;;;28.13;16.27;;;2.90;99.90;;;;;;5009229;28;20311;-71
2021/01/19 00:25:46;;;;;;;25.33;16.13;;;2.80;99.90;;;;;;5009142;28;20235;-71
2021/01/19 00:28:13;;;;;;;24.73;15.70;;;2.80;99.90;;;;;;5009002;28;20218;-71
2021/01/19 00:30:40;;;;;;;26.27;15.97;;;2.80;99.90;;;;;;5008715;28;20209;-70
2021/01/19 00:33:07;;;;;;;24.80;15.50;;;2.80;99.90;;;;;;5008828;28;20258;-70
2021/01/19 00:35:34;;;;;;;24.90;15.47;;;2.80;99.90;;;;;;5008835;28;20618;-71
2021/01/19 00:38:01;;;;;;;25.43;15.83;;;2.80;99.90;;;;;;5008792;28;20237;-71
2021/01/19 00:40:27;;;;;;;26.03;15.60;;;2.90;99.90;;;;;;5008310;28;20672;-72
2021/01/19 00:42:54;;;;;;;24.07;15.13;;;2.90;99.90;;;;;;5008936;28;20202;-72
2021/01/19 00:45:20;;;;;;;23.43;14.93;;;2.80;99.90;;;;;;5008270;28;20238;-72
2021/01/19 00:47:47;;;;;;;22.67;14.67;;;2.80;99.90;;;;;;5008891;28;20255;-72
2021/01/19 00:50:14;;;;;;;21.23;15.50;;;2.80;99.90;;;;;;5008713;28;20214;-72
2021/01/19 00:52:41;;;;;;;22.30;15.10;;;2.80;99.90;;;;;;5008591;28;20205;-70
2021/01/19 00:55:09;;;;;;;21.43;15.33;;;2.80;99.90;;;;;;5008234;28;20300;-70
2021/01/19 00:57:35;;;;;;;21.23;14.53;;;2.80;99.90;;;;;;5008168;28;20679;-71
2021/01/19 01:00:03;;;;;;;24.37;14.70;;;2.80;99.90;;;;;;5007896;28;20244;-71
2021/01/19 01:02:30;;;;;;;25.53;15.77;;;2.80;99.90;;;;;;5008236;28;20210;-71
2021/01/19 01:04:56;;;;;;;23.23;15.77;;;2.80;99.90;;;;;;5008461;28;20676;-71
2021/01/19 01:07:22;;;;;;;27.07;15.27;;;2.80;99.90;;;;;;5008361;28;20206;-71
2021/01/19 01:09:50;;;;;;;19.27;13.93;;;2.80;99.90;;;;;;5008293;28;20334;-71
2021/01/19 01:12:16;;;;;;;22.43;14.53;;;2.80;99.90;;;;;;5008238;28;20557;-71
2021/01/19 01:14:42;;;;;;;20.37;15.17;;;2.80;99.90;;;;;;5008087;28;20726;-71
2021/01/19 01:17:09;;;;;;;23.43;15.40;;;2.80;99.90;;;;;;5008146;28;20288;-71
2021/01/19 01:19:35;;;;;;;22.03;15.93;;;2.80;99.90;;;;;;5007649;28;20345;-72
2021/01/19 01:22:01;;;;;;;25.77;15.53;;;2.80;99.90;;;;;;5008005;28;20804;-72
2021/01/19 01:24:28;;;;;;;22.27;15.57;;;2.80;99.90;;;;;;5007931;28;20233;-73
2021/01/19 01:26:55;;;;;;;23.53;15.07;;;2.80;99.90;;;;;;5007694;28;20746;-72
2021/01/19 01:29:21;;;;;;;21.77;15.17;;;2.80;99.90;;;;;;5008067;28;20292;-72
2021/01/19 01:31:48;;;;;;;22.17;14.17;;;2.80;99.90;;;;;;5008254;28;20761;-72
2021/01/19 01:34:14;;;;;;;22.87;15.27;;;2.80;99.90;;;;;;5007745;28;20275;-72
2021/01/19 01:36:41;;;;;;;25.17;15.17;;;2.80;99.90;;;;;;5007694;28;20206;-72
2021/01/19 01:39:07;;;;;;;27.13;15.40;;;2.80;99.90;;;;;;5007614;28;20728;-72
2021/01/19 01:41:34;;;;;;;24.07;14.77;;;2.80;99.90;;;;;;5007913;28;20267;-72
2021/01/19 01:44:02;;;;;;;19.70;14.17;;;2.80;99.90;;;;;;5007425;28;20237;-72
2021/01/19 01:46:31;;;;;;;21.77;14.47;;;2.80;99.90;;;;;;5007998;28;20256;-72
2021/01/19 01:48:58;;;;;;;20.53;14.20;;;2.80;99.90;;;;;;5007187;28;20668;-72
2021/01/19 01:51:25;;;;;;;20.60;14.63;;;2.80;99.90;;;;;;5007240;28;20201;-71
2021/01/19 01:53:52;;;;;;;18.43;13.67;;;2.80;99.90;;;;;;5007841;28;20304;-72
2021/01/19 01:56:19;;;;;;;21.60;14.17;;;2.70;99.90;;;;;;5007162;28;20735;-72
2021/01/19 01:58:46;;;;;;;21.97;14.50;;;2.70;99.90;;;;;;5007131;28;20754;-72
2021/01/19 02:01:13;;;;;;;24.03;14.43;;;2.80;99.90;;;;;;5007232;28;20572;-72
2021/01/19 02:03:40;;;;;;;21.73;14.60;;;2.80;99.90;;;;;;5007642;28;20233;-72
2021/01/19 02:06:06;;;;;;;20.10;14.87;;;2.80;99.90;;;;;;5007587;28;20312;-72
2021/01/19 02:08:42;;;;;;;22.20;14.47;;;2.80;99.90;;;;;;5007716;28;20213;-71
2021/01/19 02:11:20;;;;;;;21.43;15.20;;;2.80;99.90;;;;;;5007597;28;20256;-71
2021/01/19 02:13:59;;;;;;;21.13;14.57;;;2.80;99.90;;;;;;5007690;28;20275;-71
2021/01/19 02:16:53;;;;;;;20.73;14.13;;;2.80;99.90;;;;;;5007905;28;20300;-71
2021/01/19 02:20:01;;;;;;;22.20;14.37;;;2.80;99.90;;;;;;5007295;28;20240;-71
2021/01/19 02:22:58;;;;;;;23.87;14.00;;;2.80;99.90;;;;;;5008004;28;20198;-71
2021/01/19 02:25:46;;;;;;;18.03;13.77;;;2.80;99.90;;;;;;5007468;28;20621;-71
2021/01/19 02:28:23;;;;;;;19.93;13.50;;;2.80;99.90;;;;;;5007841;28;20202;-70
2021/01/19 02:31:12;;;;;;;19.27;13.90;;;2.80;99.90;;;;;;5008296;28;20987;-70
2021/01/19 02:33:53;;;;;;;21.17;13.83;;;2.80;99.90;;;;;;5011752;28;20213;-71
2021/01/19 02:36:27;;;;;;;16.63;13.13;;;2.80;99.90;;;;;;5011348;28;20216;-71
2021/01/19 02:38:57;;;;;;;21.57;14.07;;;2.80;99.90;;;;;;5011460;28;20256;-70
2021/01/19 02:41:24;;;;;;;17.10;13.23;;;2.90;99.90;;;;;;5011219;28;20209;-71
2021/01/19 02:43:56;;;;;;;18.27;13.07;;;2.90;99.90;;;;;;5011163;28;20341;-71
2021/01/19 02:46:25;;;;;;;20.73;13.73;;;2.90;99.90;;;;;;5010852;28;20193;-71
2021/01/19 02:48:52;;;;;;;20.00;13.23;;;2.90;99.90;;;;;;5011000;28;20205;-71
2021/01/19 02:51:20;;;;;;;20.20;13.17;;;2.90;99.90;;;;;;5011103;28;20205;-71
2021/01/19 02:53:48;;;;;;;16.57;13.17;;;2.90;99.90;;;;;;5010932;28;20707;-72
2021/01/19 02:56:24;;;;;;;18.13;12.47;;;2.90;99.90;;;;;;5010958;28;20216;-72
2021/01/19 02:59:04;;;;;;;17.30;13.17;;;2.90;99.90;;;;;;5011163;28;20225;-72
2021/01/19 03:01:38;;;;;;;17.33;12.60;;;2.90;99.90;;;;;;5010732;28;20194;-72
2021/01/19 03:04:06;;;;;;;19.50;12.63;;;2.90;99.90;;;;;;5010898;28;20200;-71
2021/01/19 03:06:32;;;;;;;17.10;12.53;;;2.90;99.90;;;;;;5010875;28;20239;-71
2021/01/19 03:09:01;;;;;;;21.47;13.53;;;2.90;99.90;;;;;;5010827;28;20228;-71
2021/01/19 03:11:28;;;;;;;21.97;12.80;;;2.90;99.90;;;;;;5010673;28;20206;-71
2021/01/19 03:13:55;;;;;;;18.67;12.27;;;2.90;99.90;;;;;;5010590;28;20245;-72
2021/01/19 03:16:24;;;;;;;20.37;12.23;;;2.90;99.90;;;;;;5010562;28;20205;-71
2021/01/19 03:18:52;;;;;;;18.13;12.07;;;2.90;99.90;;;;;;5010735;28;20265;-71
2021/01/19 03:21:19;;;;;;;13.40;11.30;;;2.90;99.90;;;;;;5010287;28;20209;-71
2021/01/19 03:23:46;;;;;;;15.43;11.47;;;2.90;99.90;;;;;;5010323;28;20229;-71
2021/01/19 03:26:12;;;;;;;16.33;12.47;;;2.90;99.90;;;;;;5010339;28;20213;-71
2021/01/19 03:28:39;;;;;;;18.73;12.90;;;2.90;99.90;;;;;;5010593;28;20213;-71
2021/01/19 03:31:05;;;;;;;17.13;11.57;;;2.90;99.90;;;;;;5010323;28;20202;-72
2021/01/19 03:33:32;;;;;;;17.63;11.73;;;2.90;99.90;;;;;;5010134;28;20767;-72
2021/01/19 03:35:59;;;;;;;16.03;12.17;;;2.90;99.90;;;;;;5010350;28;20217;-72
2021/01/19 03:38:26;;;;;;;17.53;12.20;;;2.90;99.90;;;;;;5009685;28;20328;-72
2021/01/19 03:40:52;;;;;;;12.87;11.37;;;2.90;99.90;;;;;;5009872;28;20296;-73
2021/01/19 03:43:19;;;;;;;13.40;10.70;;;2.90;99.90;;;;;;5009852;28;20673;-72
2021/01/19 03:45:45;;;;;;;15.13;11.57;;;2.90;99.90;;;;;;5010326;28;20216;-71
2021/01/19 03:48:12;;;;;;;14.73;11.10;;;2.90;99.90;;;;;;5010028;28;20213;-71
2021/01/19 03:50:38;;;;;;;17.07;11.10;;;3.00;99.90;;;;;;5009973;28;20507;-71
2021/01/19 03:53:04;;;;;;;12.60;9.77;;;2.90;99.90;;;;;;5010035;28;20202;-71
2021/01/19 03:55:32;;;;;;;13.70;11.03;;;2.90;99.90;;;;;;5009783;28;20286;-71
2021/01/19 03:57:58;;;;;;;15.43;10.10;;;2.90;99.90;;;;;;5009995;28;20691;-71
2021/01/19 04:00:25;;;;;;;14.27;9.77;;;2.90;99.90;;;;;;5009572;28;20300;-71
2021/01/19 04:02:51;;;;;;;13.60;11.17;;;2.90;99.90;;;;;;5009831;28;20209;-71
2021/01/19 04:05:18;;;;;;;14.47;10.80;;;2.90;99.90;;;;;;5006476;28;20194;-70
2021/01/19 04:07:45;;;;;;;12.50;10.90;;;2.90;99.90;;;;;;5004770;28;20207;-72
2021/01/19 04:10:13;;;;;;;15.17;10.60;;;2.90;99.90;;;;;;5009244;28;20213;-72
2021/01/19 04:12:40;;;;;;;13.17;10.17;;;2.90;99.90;;;;;;5009678;28;20620;-72
2021/01/19 04:15:09;;;;;;;14.33;10.50;;;2.90;99.90;;;;;;5009650;28;20263;-72
2021/01/19 04:17:36;;;;;;;12.67;10.17;;;2.90;99.90;;;;;;5002626;28;20211;-71
2021/01/19 04:20:04;;;;;;;12.30;11.00;;;2.90;99.90;;;;;;4986807;28;20248;-72
2021/01/19 04:22:30;;;;;;;14.47;10.50;;;2.80;99.90;;;;;;5006413;28;20206;-72
2021/01/19 04:24:57;;;;;;;12.73;10.77;;;2.90;99.90;;;;;;5006707;28;20229;-72
2021/01/19 04:27:23;;;;;;;14.07;10.10;;;2.90;99.90;;;;;;5006392;28;20280;-72
2021/01/19 04:29:50;;;;;;;12.27;10.53;;;2.90;99.90;;;;;;4999589;28;20201;-72
2021/01/19 04:32:17;;;;;;;15.67;11.27;;;2.90;99.90;;;;;;4985789;28;20309;-72
2021/01/19 04:34:43;;;;;;;13.90;10.47;;;2.90;99.90;;;;;;4986829;28;20206;-71
2021/01/19 04:37:10;;;;;;;12.40;10.23;;;2.80;99.90;;;;;;4986691;28;20210;-72
2021/01/19 04:39:36;;;;;;;15.90;11.20;;;2.90;99.90;;;;;;4986696;28;20241;-72
2021/01/19 04:42:03;;;;;;;13.70;11.10;;;2.90;99.90;;;;;;4986237;28;20839;-72
2021/01/19 04:44:30;;;;;;;13.33;10.77;;;2.90;99.90;;;;;;4986126;28;20672;-72
2021/01/19 04:46:59;;;;;;;16.23;14.33;;;2.90;99.90;;;;;;4993071;28;20241;-73
2021/01/19 04:49:29;;;;;;;21.10;17.63;;;2.90;99.90;;;;;;4994452;28;20211;-73
2021/01/19 04:51:57;;;;;;;14.67;10.43;;;2.90;99.90;;;;;;5000305;28;20289;-72
2021/01/19 04:54:26;;;;;;;13.17;9.70;;;2.90;99.90;;;;;;5004786;28;20247;-72
2021/01/19 04:56:55;;;;;;;12.50;9.80;;;2.90;99.90;;;;;;5005922;28;20248;-72
2021/01/19 04:59:24;;;;;;;12.77;9.73;;;2.90;99.90;;;;;;4994828;28;20230;-72
2021/01/19 05:02:34;;;;;;;11.97;9.60;;;2.90;99.90;;;;;;5007837;28;20216;-72
2021/01/19 05:05:21;;;;;;;10.87;9.33;;;2.90;99.90;;;;;;5005371;28;20210;-71
2021/01/19 05:08:23;;;;;;;12.87;9.30;;;2.80;99.90;;;;;;4998690;28;20226;-71
2021/01/19 05:10:55;;;;;;;11.27;9.30;;;2.80;99.90;;;;;;4980948;28;20194;-71
2021/01/19 05:13:43;;;;;;;11.57;9.03;;;2.80;99.90;;;;;;4990464;28;20225;-72
2021/01/19 05:16:14;;;;;;;15.33;9.40;;;2.80;99.90;;;;;;4998627;28;20212;-72
2021/01/19 05:18:43;;;;;;;11.37;9.43;;;2.80;99.90;;;;;;4995800;28;20308;-71
2021/01/19 05:21:10;;;;;;;12.97;9.13;;;2.80;99.90;;;;;;4995913;28;20621;-71
2021/01/19 05:23:36;;;;;;;9.77;8.73;;;2.70;99.90;;;;;;4994614;28;20220;-72
2021/01/19 05:26:05;;;;;;;10.63;9.40;;;2.70;99.90;;;;;;4995845;28;20205;-71
2021/01/19 05:28:35;;;;;;;13.07;8.60;;;2.70;99.90;;;;;;4998524;28;20202;-72
2021/01/19 05:31:04;;;;;;;9.80;8.80;;;2.70;99.90;;;;;;4997693;28;20208;-72
2021/01/19 05:33:30;;;;;;;10.07;8.07;;;2.70;99.90;;;;;;4995778;28;20202;-72
2021/01/19 05:36:08;;;;;;;12.30;8.37;;;2.70;99.90;;;;;;4994971;28;20212;-72
2021/01/19 05:38:48;;;;;;;9.60;8.07;;;2.70;99.90;;;;;;4995988;28;20702;-72
2021/01/19 05:41:28;;;;;;;10.30;8.30;;;2.70;99.90;;;;;;4996291;28;20290;-72
2021/01/19 05:43:54;;;;;;;9.07;7.57;;;2.70;99.90;;;;;;4995734;28;20743;-71
2021/01/19 05:46:28;;;;;;;8.70;7.67;;;2.70;99.90;;;;;;4997008;28;20288;-72
2021/01/19 05:49:00;;;;;;;8.97;7.57;;;2.70;99.90;;;;;;4997776;28;20216;-72
2021/01/19 05:51:31;;;;;;;8.90;8.00;;;2.70;99.90;;;;;;4998005;28;20210;-72
2021/01/19 05:53:59;;;;;;;8.03;7.30;;;2.70;99.90;;;;;;4996738;28;20460;-72
2021/01/19 05:56:27;;;;;;;8.47;7.27;;;2.70;99.90;;;;;;4995832;28;20564;-71
2021/01/19 05:58:53;;;;;;;7.63;6.87;;;2.70;99.90;;;;;;4995796;28;20221;-72
2021/01/19 06:01:32;;;;;;;9.37;7.60;;;2.70;99.90;;;;;;4996602;28;20206;-72
2021/01/19 06:04:00;;;;;;;7.60;6.50;;;2.70;99.90;;;;;;4997978;28;20682;-71
2021/01/19 06:06:28;;;;;;;7.70;6.90;;;2.70;99.90;;;;;;4998866;28;20207;-72
2021/01/19 06:09:00;;;;;;;8.33;6.17;;;2.70;99.90;;;;;;4999460;28;20677;-72
2021/01/19 06:11:27;;;;;;;8.23;6.33;;;2.70;99.90;;;;;;5000079;28;20207;-72
2021/01/19 06:13:55;;;;;;;8.40;6.97;;;2.70;99.90;;;;;;4999525;28;20575;-72
2021/01/19 06:16:23;;;;;;;6.27;5.67;;;2.70;99.90;;;;;;5000659;28;20206;-72
2021/01/19 06:18:49;;;;;;;8.23;6.00;;;2.70;99.90;;;;;;4999118;28;20233;-72
2021/01/19 06:21:29;;;;;;;8.60;6.50;;;2.70;99.90;;;;;;5001051;28;20787;-72
2021/01/19 06:23:56;;;;;;;7.80;6.47;;;2.70;99.90;;;;;;4997947;28;20236;-72
2021/01/19 06:26:23;;;;;;;8.83;7.93;;;2.70;99.90;;;;;;5000843;28;20297;-73
2021/01/19 06:28:50;;;;;;;14.30;12.27;;;2.70;99.90;;;;;;5001952;28;20206;-73
2021/01/19 06:31:20;;;;;;;10.63;7.87;;;2.70;99.90;;;;;;4998733;28;20211;-72
2021/01/19 06:33:48;;;;;;;9.63;6.87;;;2.70;99.90;;;;;;5001051;28;20301;-72
2021/01/19 06:36:16;;;;;;;7.43;6.70;;;2.70;99.90;;;;;;4993547;28;20198;-72
2021/01/19 06:38:47;;;;;;;7.90;6.50;;;2.70;99.90;;;;;;4991755;28;20234;-72
2021/01/19 06:41:17;;;;;;;8.13;6.93;;;2.70;99.90;;;;;;4991329;28;20206;-72
2021/01/19 06:43:50;;;;;;;8.57;6.90;;;2.80;99.90;;;;;;4991186;28;20775;-72
2021/01/19 06:46:19;;;;;;;7.70;6.97;;;2.70;99.90;;;;;;4991257;28;20213;-72
2021/01/19 06:48:47;;;;;;;7.60;6.90;;;2.70;99.90;;;;;;4991624;28;20211;-72
2021/01/19 06:51:15;;;;;;;7.50;6.27;;;2.80;99.90;;;;;;5000640;28;20616;-72
2021/01/19 06:53:46;;;;;;;7.00;6.30;;;2.70;99.90;;;;;;4997509;28;20212;-72
2021/01/19 06:56:14;;;;;;;7.63;6.47;;;2.70;99.90;;;;;;4996315;28;20202;-72
2021/01/19 06:58:53;;;;;;;10.00;6.47;;;2.70;99.90;;;;;;4999948;28;20225;-72
2021/01/19 07:01:21;;;;;;;7.13;6.47;;;2.70;99.90;;;;;;4998792;28;20664;-72
2021/01/19 07:03:48;;;;;;;8.60;6.83;;;2.70;99.90;;;;;;5001230;28;20653;-72
2021/01/19 07:06:16;;;;;;;7.47;6.70;;;2.70;99.90;;;;;;4999811;28;20240;-72
2021/01/19 07:09:27;;;;;;;6.73;6.13;;;2.70;99.90;;;;;;4997643;28;20644;-72
2021/01/19 07:12:02;;;;;;;10.20;7.03;;;2.70;99.90;;;;;;5001640;28;20263;-72
2021/01/19 07:15:04;;;;;;;9.20;6.53;;;2.70;99.90;;;;;;4995167;28;20201;-72
2021/01/19 07:18:13;;;;;;;8.00;6.70;;;2.70;99.90;;;;;;5001956;28;20198;-72
2021/01/19 07:21:00;;;;;;;7.70;6.60;;;2.70;99.90;;;;;;4999234;28;20596;-72
2021/01/19 07:23:51;;;;;;;8.20;6.27;;;2.70;99.90;;;;;;4995189;28;20801;-72
2021/01/19 07:26:18;;;;;;;7.17;6.47;;;2.70;99.90;;;;;;5001903;28;20289;-72
2021/01/19 07:28:45;;;;;;;7.37;6.10;;;2.70;99.90;;;;;;5000506;28;20984;-72
2021/01/19 07:31:14;;;;;;;8.23;6.83;;;2.70;99.90;;;;;;4998907;28;20290;-72
2021/01/19 07:33:43;;;;;;;8.03;6.63;;;2.70;99.90;;;;;;4995852;28;20198;-72
2021/01/19 07:36:14;;;;;;;10.00;6.47;;;2.70;99.90;;;;;;5005691;28;20197;-72
2021/01/19 07:38:40;;;;;;;8.07;6.43;;;2.70;99.90;;;;;;4996504;28;20218;-72
2021/01/19 07:41:07;;;;;;;9.80;6.47;;;2.70;99.90;;;;;;4996263;28;20212;-72
2021/01/19 07:43:35;;;;;;;7.90;6.73;;;2.70;99.90;;;;;;5000826;28;20614;-72
2021/01/19 07:46:02;;;;;;;8.57;6.53;;;2.70;99.90;;;;;;5001121;28;20209;-72
2021/01/19 07:48:31;;;;;;;8.17;6.90;;;2.70;99.90;;;;;;4996466;28;20228;-72
2021/01/19 07:51:12;;;;;;;10.47;6.77;;;2.70;99.90;;;;;;4997671;28;20240;-73
2021/01/19 07:53:47;;;;;;;22.33;19.97;;;2.70;99.90;;;;;;5001669;28;20268;-74
2021/01/19 07:56:22;;;;;;;15.30;12.03;;;2.70;99.90;;;;;;5001270;28;20189;-74
2021/01/19 07:58:49;;;;;;;9.13;8.03;;;2.70;99.90;;;;;;4996090;28;20217;-72
2021/01/19 08:01:23;;;;;;;9.70;7.40;;;2.80;99.90;;;;;;4996900;28;20205;-72
2021/01/19 08:03:50;;;;;;;8.57;6.57;;;2.80;99.90;;;;;;4998259;28;20506;-72
2021/01/19 08:06:17;;;;;;;7.87;6.90;;;2.80;99.90;;;;;;4997938;28;20218;-72
2021/01/19 08:08:43;;;;;;;9.67;7.37;;;2.80;99.90;;;;;;4997861;28;20201;-72
2021/01/19 08:11:19;;;;;;;7.83;7.03;;;2.80;99.90;;;;;;4997714;28;20325;-72
2021/01/19 08:13:57;;;;;;;7.70;6.33;;;2.80;99.90;;;;;;4997314;28;20201;-72
2021/01/19 08:16:27;;;;;;;8.57;6.63;;;2.90;99.90;;;;;;5002397;28;20198;-71
2021/01/19 08:19:07;;;;;;;9.07;7.40;;;2.90;99.90;;;;;;4998643;28;20308;-72
2021/01/19 08:21:35;;;;;;;7.50;6.77;;;2.80;99.90;;;;;;4996912;28;20617;-72
2021/01/19 08:24:07;;;;;;;10.70;6.50;;;2.90;99.90;;;;;;4999498;28;20231;-72
2021/01/19 08:26:34;;;;;;;7.80;6.90;;;2.90;99.90;;;;;;4996221;28;20197;-72
2021/01/19 08:29:02;;;;;;;9.83;7.03;;;2.90;99.90;;;;;;4998327;28;20552;-71
2021/01/19 08:31:29;;;;;;;7.43;6.73;;;2.90;99.90;;;;;;4997047;28;20202;-71
2021/01/19 08:34:04;;;;;;;7.07;6.37;;;2.90;99.90;;;;;;4998009;28;20284;-72
2021/01/19 08:36:32;;;;;;;9.70;6.67;;;2.90;99.90;;;;;;4997777;28;20284;-72
2021/01/19 08:39:00;;;;;;;7.47;6.70;;;2.90;99.90;;;;;;4997151;28;20756;-72
2021/01/19 08:41:27;;;;;;;8.47;6.40;;;2.90;99.90;;;;;;5001411;28;20351;-71
2021/01/19 08:43:55;;;;;;;8.73;6.50;;;3.00;99.90;;;;;;4999216;28;20229;-71
2021/01/19 08:46:23;;;;;;;7.70;6.63;;;3.00;99.90;;;;;;4999026;28;20286;-72
2021/01/19 08:48:50;;;;;;;9.07;6.60;;;3.00;99.90;;;;;;4997243;28;20736;-72
2021/01/19 08:51:22;;;;;;;11.57;6.73;;;3.00;99.90;;;;;;4999621;28;20340;-72
2021/01/19 08:53:49;;;;;;;7.03;6.33;;;3.00;99.90;;;;;;4997100;28;20208;-72
2021/01/19 08:56:20;;;;;;;7.13;6.10;;;3.00;99.90;;;;;;4996357;28;20661;-71
2021/01/19 08:58:46;;;;;;;7.47;6.00;;;3.10;99.90;;;;;;4996224;28;20204;-72
2021/01/19 09:01:13;;;;;;;7.17;6.23;;;3.00;99.90;;;;;;4997198;28;20195;-71
2021/01/19 09:03:39;;;;;;;8.10;6.17;;;3.00;99.90;;;;;;4999841;28;20668;-72
2021/01/19 09:06:07;;;;;;;6.27;5.53;;;3.10;99.90;;;;;;4999117;28;20241;-72
2021/01/19 09:08:36;;;;;;;8.53;6.07;;;3.10;99.90;;;;;;4997664;28;20219;-72
2021/01/19 09:11:04;;;;;;;7.47;5.97;;;3.10;99.90;;;;;;4995997;28;20590;-71
2021/01/19 09:13:32;;;;;;;8.07;5.90;;;3.10;99.90;;;;;;4999717;28;20281;-72
2021/01/19 09:15:59;;;;;;;9.87;5.70;;;3.10;99.90;;;;;;4996461;28;20979;-71
2021/01/19 09:18:26;;;;;;;8.17;5.93;;;3.10;99.90;;;;;;4998341;28;20201;-71
2021/01/19 09:21:03;;;;;;;7.00;5.47;;;3.10;99.90;;;;;;4996817;28;20238;-71
2021/01/19 09:23:35;;;;;;;7.07;5.23;;;3.10;99.90;;;;;;4996543;28;20750;-71
2021/01/19 09:26:06;;;;;;;7.47;5.50;;;3.20;99.90;;;;;;5000362;28;21018;-71
2021/01/19 09:28:34;;;;;;;6.27;5.67;;;3.20;99.90;;;;;;5007620;28;20223;-70
2021/01/19 09:31:15;;;;;;;7.43;5.37;;;3.20;99.90;;;;;;5007897;28;20205;-71
2021/01/19 09:33:43;;;;;;;5.77;5.13;;;3.20;99.90;;;;;;5008034;28;20696;-71
2021/01/19 09:36:10;;;;;;;6.63;5.50;;;3.30;99.90;;;;;;5007609;28;20212;-71
2021/01/19 09:38:38;;;;;;;6.13;5.30;;;3.30;99.90;;;;;;5007739;28;20356;-71
2021/01/19 09:41:05;;;;;;;5.40;4.90;;;3.30;99.90;;;;;;5007151;28;20208;-71
2021/01/19 09:43:33;;;;;;;9.27;4.87;;;3.30;99.90;;;;;;5007736;28;20245;-71
2021/01/19 09:46:01;;;;;;;4.80;4.37;;;3.30;99.90;;;;;;5008135;28;20457;-72
2021/01/19 09:48:31;;;;;;;4.37;3.97;;;3.30;99.90;;;;;;5007909;28;20216;-72
2021/01/19 09:51:02;;;;;;;7.70;4.07;;;3.30;99.90;;;;;;5007948;28;20304;-72
2021/01/19 09:53:32;;;;;;;4.40;3.60;;;3.30;99.90;;;;;;5007817;28;20220;-72
2021/01/19 09:56:00;;;;;;;3.93;3.63;;;3.30;99.90;;;;;;5007892;28;20250;-72
2021/01/19 09:58:28;;;;;;;8.47;7.40;;;3.20;99.90;;;;;;5001746;28;20264;-73
2021/01/19 10:00:55;;;;;;;11.73;10.53;;;3.30;99.90;;;;;;4995562;28;20222;-73
2021/01/19 10:03:25;;;;;;;7.10;3.90;;;3.30;99.90;;;;;;4995350;28;20212;-73
2021/01/19 10:06:05;;;;;;;4.57;4.00;;;3.30;99.90;;;;;;4987912;28;20673;-72
2021/01/19 10:08:33;;;;;;;4.43;3.80;;;3.30;99.90;;;;;;4987900;28;20651;-71
2021/01/19 10:11:00;;;;;;;6.30;4.20;;;3.30;99.90;;;;;;4988048;28;20248;-72
2021/01/19 10:13:28;;;;;;;6.50;4.47;;;3.30;99.90;;;;;;4988010;28;20641;-72
2021/01/19 10:16:03;;;;;;;5.53;4.30;;;3.30;99.90;;;;;;4988276;28;20241;-72
2021/01/19 10:18:31;;;;;;;6.73;4.20;;;3.30;99.90;;;;;;4988126;28;20719;-73
2021/01/19 10:20:57;;;;;;;4.10;3.80;;;3.30;99.90;;;;;;4988163;28;20646;-72
2021/01/19 10:23:28;;;;;;;5.13;4.03;;;3.30;99.90;;;;;;4987945;28;20234;-72
2021/01/19 10:26:06;;;;;;;6.97;4.33;;;3.30;99.90;;;;;;4987721;28;20191;-73
2021/01/19 10:28:42;;;;;;;4.80;4.33;;;3.20;99.90;;;;;;4987715;28;20740;-72
2021/01/19 10:31:19;;;;;;;4.20;3.90;;;3.20;99.90;;;;;;4988048;28;20221;-72
2021/01/19 10:34:01;;;;;;;8.47;4.10;;;3.20;99.90;;;;;;4988146;28;20282;-72
2021/01/19 10:36:28;;;;;;;4.53;4.13;;;3.20;99.90;;;;;;4988130;28;20208;-72
2021/01/19 10:39:01;;;;;;;5.37;4.40;;;3.20;99.90;;;;;;4988200;28;21082;-72
2021/01/19 10:41:30;;;;;;;4.50;4.20;;;3.20;99.90;;;;;;4993001;28;20251;-72
2021/01/19 10:43:57;;;;;;;5.13;4.73;;;3.20;99.90;;;;;;4994563;28;20288;-72
2021/01/19 10:46:26;;;;;;;5.70;4.70;;;3.20;99.90;;;;;;4995554;28;20207;-72
2021/01/19 10:49:06;;;;;;;5.40;4.17;;;3.20;99.90;;;;;;5007197;28;20221;-72
2021/01/19 10:51:32;;;;;;;5.93;4.33;;;3.10;99.90;;;;;;5007537;28;20219;-72
2021/01/19 10:54:07;;;;;;;5.67;4.13;;;3.10;99.90;;;;;;5010644;28;20217;-72
2021/01/19 10:56:35;;;;;;;5.80;4.33;;;3.10;99.90;;;;;;5009386;28;20287;-72
2021/01/19 10:59:01;;;;;;;6.50;4.10;;;3.10;99.90;;;;;;4991495;28;20326;-72
2021/01/19 11:01:28;;;;;;;4.80;4.33;;;3.10;99.90;;;;;;4999904;28;20228;-72
2021/01/19 11:03:55;;;;;;;5.30;3.97;;;3.00;99.90;;;;;;5011157;28;20209;-72
2021/01/19 11:06:21;;;;;;;4.50;4.10;;;3.00;99.90;;;;;;5010541;28;20209;-72
2021/01/19 11:08:48;;;;;;;4.53;4.03;;;3.00;99.90;;;;;;5007485;28;20206;-72
2021/01/19 11:11:14;;;;;;;9.23;4.70;;;2.90;99.90;;;;;;4990857;28;20296;-72
2021/01/19 11:13:42;;;;;;;5.67;4.20;;;2.90;99.90;;;;;;4998633;28;20197;-73
2021/01/19 11:16:10;;;;;;;6.60;4.00;;;2.90;99.90;;;;;;4999685;28;20838;-72
2021/01/19 11:18:37;;;;;;;6.10;4.57;;;2.80;99.90;;;;;;5003866;28;20229;-72
2021/01/19 11:21:05;;;;;;;6.43;5.47;;;2.80;99.90;;;;;;4998360;28;20723;-73
2021/01/19 11:23:31;;;;;;;7.33;5.40;;;2.80;99.90;;;;;;5004552;28;20221;-72
2021/01/19 11:25:58;;;;;;;5.43;3.90;;;2.70;99.90;;;;;;4998562;28;20197;-73
2021/01/19 11:28:24;;;;;;;4.57;3.73;;;2.60;99.90;;;;;;5000050;28;20202;-72
2021/01/19 11:30:51;;;;;;;7.73;4.20;;;2.50;99.90;;;;;;4996655;28;20704;-72
2021/01/19 11:33:18;;;;;;;4.73;4.17;;;2.50;99.90;;;;;;4995661;28;20206;-72
2021/01/19 11:35:44;;;;;;;7.40;3.93;;;2.40;99.90;;;;;;4999929;28;20613;-72
2021/01/19 11:38:11;;;;;;;5.70;3.70;;;2.40;99.90;;;;;;4998127;28;20317;-73
2021/01/19 11:40:39;;;;;;;4.87;4.17;;;2.30;99.90;;;;;;5002727;28;20712;-73
2021/01/19 11:43:05;;;;;;;7.57;3.80;;;2.20;99.90;;;;;;4998076;28;20252;-72
2021/01/19 11:45:32;;;;;;;4.77;3.77;;;2.20;99.90;;;;;;4999895;28;20210;-72
2021/01/19 11:47:59;;;;;;;3.93;3.63;;;2.20;99.90;;;;;;5003672;28;20194;-72
2021/01/19 11:50:26;;;;;;;4.53;3.70;;;2.20;99.90;;;;;;4997776;28;20203;-72
2021/01/19 11:52:52;;;;;;;4.90;4.00;;;2.10;99.90;;;;;;4998720;28;20263;-72
2021/01/19 11:55:19;;;;;;;4.47;3.63;;;2.10;99.90;;;;;;4995161;28;20198;-72
2021/01/19 11:57:45;;;;;;;4.60;3.77;;;2.10;99.90;;;;;;5001166;28;20263;-72
2021/01/19 12:00:12;;;;;;;4.40;3.93;;;2.00;99.90;;;;;;4998659;28;20324;-72
2021/01/19 12:02:39;;;;;;;6.23;3.93;;;2.00;99.90;;;;;;5003068;28;20285;-72
2021/01/19 12:05:07;;;;;;;5.70;4.00;;;2.00;99.90;;;;;;5000246;28;20285;-73
2021/01/19 12:07:38;;;;;;;17.57;14.53;;;1.90;99.90;;;;;;4998761;28;20594;-73
2021/01/19 12:10:05;;;;;;;21.97;16.50;;;2.00;99.90;;;;;;4999995;28;20289;-73
2021/01/19 12:12:32;;;;;;;6.87;5.43;;;1.90;99.90;;;;;;5003638;28;20267;-72
2021/01/19 12:14:58;;;;;;;4.03;3.57;;;1.90;99.90;;;;;;5000538;28;20213;-72
2021/01/19 12:17:25;;;;;;;3.20;3.00;;;1.90;99.90;;;;;;5001872;28;20198;-72
2021/01/19 12:19:51;;;;;;;4.00;3.60;;;1.80;99.90;;;;;;4996172;28;20747;-72
2021/01/19 12:22:18;;;;;;;3.87;3.23;;;1.80;99.90;;;;;;5000276;28;21111;-72
2021/01/19 12:24:45;;;;;;;4.03;3.10;;;1.80;99.90;;;;;;4997420;28;20728;-72
2021/01/19 12:27:11;;;;;;;2.93;2.73;;;1.80;99.90;;;;;;5003590;28;20630;-72
2021/01/19 12:29:38;;;;;;;2.77;2.57;;;1.80;99.90;;;;;;4999366;28;20205;-72
2021/01/19 12:32:10;;;;;;;3.43;3.13;;;1.80;99.90;;;;;;5000686;28;20277;-72
2021/01/19 12:34:36;;;;;;;3.43;3.13;;;1.70;99.90;;;;;;5000170;28;20198;-72
2021/01/19 12:37:03;;;;;;;3.00;2.80;;;1.60;99.90;;;;;;4997146;28;20201;-73
2021/01/19 12:39:30;;;;;;;2.70;2.50;;;1.60;99.90;;;;;;4998510;28;20218;-73
2021/01/19 12:41:57;;;;;;;3.83;3.00;;;1.70;99.90;;;;;;5011394;28;20198;-73
2021/01/19 12:44:23;;;;;;;4.80;3.83;;;1.70;99.90;;;;;;5007566;28;20241;-73
2021/01/19 12:46:50;;;;;;;15.33;9.93;;;1.60;99.90;;;;;;5007634;28;20686;-73
2021/01/19 12:49:16;;;;;;;3.33;3.07;;;1.50;99.90;;;;;;5008891;28;20264;-73
2021/01/19 12:51:42;;;;;;;3.13;2.87;;;1.60;99.90;;;;;;5008842;28;20263;-73
2021/01/19 12:54:09;;;;;;;4.33;3.93;;;1.70;99.90;;;;;;5009005;28;20249;-73
2021/01/19 12:56:38;;;;;;;4.17;3.07;;;1.60;99.90;;;;;;5008198;28;20288;-74
2021/01/19 12:59:04;;;;;;;2.80;2.57;;;1.60;99.90;;;;;;5007887;28;20592;-72
2021/01/19 13:01:30;;;;;;;4.80;4.40;;;1.70;99.90;;;;;;5008587;28;20205;-73